createdAt,value
2018-08-12T00:00:12.769Z,21.64
2018-08-12T00:00:44.834Z,21.55
2018-08-12T00:01:16.902Z,21.54
2018-08-12T00:01:48.969Z,21.55
2018-08-12T00:02:21.079Z,21.53
2018-08-12T00:02:53.150Z,21.57
2018-08-12T00:03:25.209Z,21.56
2018-08-12T00:03:57.279Z,21.47
2018-08-12T00:04:29.347Z,21.44
2018-08-12T00:05:01.422Z,21.37
2018-08-12T00:05:33.488Z,21.37
2018-08-12T00:06:05.565Z,21.40
2018-08-12T00:06:37.632Z,21.46
2018-08-12T00:07:09.703Z,21.49
2018-08-12T00:07:41.774Z,21.53
2018-08-12T00:08:13.898Z,21.60
2018-08-12T00:08:45.961Z,21.68
2018-08-12T00:09:18.036Z,21.67
2018-08-12T00:09:50.109Z,21.67
2018-08-12T00:10:22.183Z,21.57
2018-08-12T00:10:54.234Z,21.60
2018-08-12T00:11:26.309Z,21.62
2018-08-12T00:11:58.381Z,21.68
2018-08-12T00:12:30.478Z,21.77
2018-08-12T00:13:02.545Z,21.78
2018-08-12T00:13:34.621Z,21.76
2018-08-12T00:14:06.693Z,21.81
2018-08-12T00:14:38.746Z,21.79
2018-08-12T00:15:10.847Z,21.81
2018-08-12T00:15:42.957Z,21.82
2018-08-12T00:16:15.014Z,21.82
2018-08-12T00:16:47.081Z,21.82
2018-08-12T00:17:19.367Z,21.82
2018-08-12T00:17:51.602Z,21.81
2018-08-12T00:18:23.661Z,21.76
2018-08-12T00:18:55.729Z,21.81
2018-08-12T00:19:27.814Z,21.79
2018-08-12T00:19:59.890Z,21.72
2018-08-12T00:20:31.944Z,21.78
2018-08-12T00:21:04.013Z,21.77
2018-08-12T00:21:36.084Z,21.77
2018-08-12T00:22:08.144Z,21.76
2018-08-12T00:22:40.237Z,21.73
2018-08-12T00:23:12.294Z,21.70
2018-08-12T00:23:44.365Z,21.68
2018-08-12T00:24:16.437Z,21.69
2018-08-12T00:24:48.500Z,21.67
2018-08-12T00:25:20.581Z,21.64
2018-08-12T00:25:52.634Z,21.65
2018-08-12T00:26:24.705Z,21.62
2018-08-12T00:26:56.773Z,21.61
2018-08-12T00:27:28.838Z,21.57
2018-08-12T00:28:00.913Z,21.56
2018-08-12T00:28:32.976Z,21.56
2018-08-12T00:29:05.039Z,21.53
2018-08-12T00:29:37.110Z,21.53
2018-08-12T00:30:09.238Z,21.50
2018-08-12T00:30:41.311Z,21.50
2018-08-12T00:31:13.378Z,21.49
2018-08-12T00:31:45.493Z,21.47
2018-08-12T00:32:17.548Z,21.46
2018-08-12T00:32:49.641Z,21.47
2018-08-12T00:33:21.710Z,21.46
2018-08-12T00:33:53.794Z,21.44
2018-08-12T00:34:25.864Z,21.44
2018-08-12T00:34:57.945Z,21.42
2018-08-12T00:35:30.001Z,21.45
2018-08-12T00:36:02.069Z,21.42
2018-08-12T00:36:34.157Z,21.41
2018-08-12T00:37:06.216Z,21.39
2018-08-12T00:37:38.370Z,21.39
2018-08-12T00:38:10.437Z,21.41
2018-08-12T00:38:42.580Z,21.42
2018-08-12T00:39:14.659Z,21.37
2018-08-12T00:39:47.280Z,21.33
2018-08-12T00:40:19.353Z,21.30
2018-08-12T00:40:51.406Z,21.32
2018-08-12T00:41:23.498Z,21.31
2018-08-12T00:41:55.557Z,21.32
2018-08-12T00:42:27.634Z,21.29
2018-08-12T00:42:59.726Z,21.28
2018-08-12T00:43:31.794Z,21.27
2018-08-12T00:44:03.845Z,21.28
2018-08-12T00:44:35.908Z,21.27
2018-08-12T00:45:07.966Z,21.27
2018-08-12T00:45:40.030Z,21.22
2018-08-12T00:46:12.096Z,21.14
2018-08-12T00:46:44.161Z,21.11
2018-08-12T00:47:16.238Z,21.08
2018-08-12T00:47:48.305Z,21.06
2018-08-12T00:48:20.353Z,21.10
2018-08-12T00:48:52.423Z,21.12
2018-08-12T00:49:24.475Z,21.13
2018-08-12T00:49:56.550Z,21.12
2018-08-12T00:50:28.604Z,21.13
2018-08-12T00:51:00.688Z,21.13
2018-08-12T00:51:32.733Z,21.11
2018-08-12T00:52:04.809Z,21.13
2018-08-12T00:52:36.891Z,21.15
2018-08-12T00:53:08.949Z,21.17
2018-08-12T00:53:41.001Z,21.19
2018-08-12T00:54:13.097Z,21.21
2018-08-12T00:54:45.173Z,21.21
2018-08-12T00:55:17.257Z,21.22
2018-08-12T00:55:49.314Z,21.22
2018-08-12T00:56:21.447Z,21.24
2018-08-12T00:56:53.504Z,21.23
2018-08-12T00:57:25.592Z,21.25
2018-08-12T00:57:57.648Z,21.22
2018-08-12T00:58:29.705Z,21.21
2018-08-12T00:59:01.772Z,21.20
2018-08-12T00:59:33.838Z,21.20
2018-08-12T01:00:05.927Z,21.18
2018-08-12T01:00:37.970Z,21.14
2018-08-12T01:01:10.033Z,21.10
2018-08-12T01:01:42.093Z,21.08
2018-08-12T01:02:14.146Z,21.06
2018-08-12T01:02:46.224Z,21.04
2018-08-12T01:03:18.287Z,21.02
2018-08-12T01:03:50.356Z,20.99
2018-08-12T01:04:22.413Z,20.91
2018-08-12T01:04:54.503Z,20.90
2018-08-12T01:05:26.573Z,20.88
2018-08-12T01:05:58.637Z,20.92
2018-08-12T01:06:30.706Z,20.85
2018-08-12T01:07:02.784Z,20.85
2018-08-12T01:07:34.850Z,20.91
2018-08-12T01:08:06.910Z,20.93
2018-08-12T01:08:38.970Z,20.94
2018-08-12T01:09:11.031Z,20.95
2018-08-12T01:09:43.151Z,20.92
2018-08-12T01:10:15.291Z,20.90
2018-08-12T01:10:47.333Z,20.93
2018-08-12T01:11:19.415Z,20.93
2018-08-12T01:11:51.472Z,20.93
2018-08-12T01:12:23.531Z,20.94
2018-08-12T01:12:55.621Z,20.94
2018-08-12T01:13:27.691Z,20.97
2018-08-12T01:13:59.760Z,21.01
2018-08-12T01:14:31.826Z,21.06
2018-08-12T01:15:03.897Z,21.06
2018-08-12T01:15:35.990Z,21.03
2018-08-12T01:16:08.055Z,21.03
2018-08-12T01:16:40.116Z,21.05
2018-08-12T01:17:12.192Z,21.06
2018-08-12T01:17:44.261Z,21.07
2018-08-12T01:18:16.318Z,21.06
2018-08-12T01:18:48.389Z,21.03
2018-08-12T01:19:20.449Z,20.99
2018-08-12T01:19:52.522Z,20.91
2018-08-12T01:20:24.603Z,20.93
2018-08-12T01:20:56.684Z,20.92
2018-08-12T01:21:28.756Z,20.91
2018-08-12T01:22:00.822Z,20.95
2018-08-12T01:22:32.895Z,20.96
2018-08-12T01:23:04.963Z,21.02
2018-08-12T01:23:37.029Z,21.07
2018-08-12T01:24:09.101Z,21.05
2018-08-12T01:24:41.160Z,21.06
2018-08-12T01:25:13.234Z,21.08
2018-08-12T01:25:45.305Z,21.04
2018-08-12T01:26:17.379Z,21.04
2018-08-12T01:26:49.509Z,21.01
2018-08-12T01:27:21.579Z,21.00
2018-08-12T01:27:53.656Z,21.01
2018-08-12T01:28:25.709Z,21.01
2018-08-12T01:28:57.780Z,21.02
2018-08-12T01:29:29.863Z,21.02
2018-08-12T01:30:01.914Z,21.08
2018-08-12T01:30:33.990Z,21.09
2018-08-12T01:31:06.141Z,21.09
2018-08-12T01:31:38.212Z,21.09
2018-08-12T01:32:10.265Z,21.10
2018-08-12T01:32:42.326Z,21.08
2018-08-12T01:33:14.405Z,21.09
2018-08-12T01:33:46.467Z,21.12
2018-08-12T01:34:18.537Z,21.16
2018-08-12T01:34:50.601Z,21.20
2018-08-12T01:35:22.722Z,21.21
2018-08-12T01:35:54.864Z,21.20
2018-08-12T01:36:26.865Z,21.19
2018-08-12T01:36:58.940Z,21.19
2018-08-12T01:37:31.009Z,21.10
2018-08-12T01:38:03.070Z,21.07
2018-08-12T01:38:35.142Z,21.07
2018-08-12T01:39:07.194Z,21.10
2018-08-12T01:39:39.274Z,21.12
2018-08-12T01:40:11.342Z,21.13
2018-08-12T01:40:43.401Z,21.14
2018-08-12T01:41:15.484Z,21.15
2018-08-12T01:41:47.551Z,21.10
2018-08-12T01:42:19.603Z,21.09
2018-08-12T01:42:51.657Z,21.09
2018-08-12T01:43:23.721Z,21.10
2018-08-12T01:43:55.891Z,21.10
2018-08-12T01:44:27.947Z,21.14
2018-08-12T01:45:00.009Z,21.10
2018-08-12T01:45:32.071Z,21.06
2018-08-12T01:46:04.138Z,20.99
2018-08-12T01:46:36.218Z,21.01
2018-08-12T01:47:08.341Z,21.03
2018-08-12T01:47:40.415Z,21.01
2018-08-12T01:48:12.481Z,20.98
2018-08-12T01:48:44.571Z,20.96
2018-08-12T01:49:16.628Z,20.96
2018-08-12T01:49:48.701Z,20.94
2018-08-12T01:50:20.764Z,20.93
2018-08-12T01:50:52.851Z,20.91
2018-08-12T01:51:24.896Z,20.93
2018-08-12T01:51:56.972Z,20.94
2018-08-12T01:52:29.039Z,20.98
2018-08-12T01:53:01.124Z,20.99
2018-08-12T01:53:33.193Z,20.98
2018-08-12T01:54:05.280Z,20.97
2018-08-12T01:54:37.331Z,20.95
2018-08-12T01:55:09.406Z,20.96
2018-08-12T01:55:41.464Z,20.94
2018-08-12T01:56:13.557Z,20.93
2018-08-12T01:56:45.618Z,20.91
2018-08-12T01:57:17.691Z,20.93
2018-08-12T01:57:49.757Z,20.94
2018-08-12T01:58:21.830Z,20.96
2018-08-12T01:58:53.948Z,20.97
2018-08-12T01:59:26.003Z,20.93
2018-08-12T01:59:58.073Z,20.89
2018-08-12T02:00:30.129Z,20.86
2018-08-12T02:01:02.192Z,20.84
2018-08-12T02:01:34.311Z,20.85
2018-08-12T02:02:06.378Z,20.88
2018-08-12T02:02:38.448Z,20.88
2018-08-12T02:03:10.548Z,20.87
2018-08-12T02:03:42.636Z,20.86
2018-08-12T02:04:14.685Z,20.85
2018-08-12T02:04:46.747Z,20.85
2018-08-12T02:05:18.853Z,20.83
2018-08-12T02:05:51.490Z,20.80
2018-08-12T02:06:23.556Z,20.82
2018-08-12T02:06:55.655Z,20.82
2018-08-12T02:07:27.702Z,20.82
2018-08-12T02:07:59.765Z,20.85
2018-08-12T02:08:31.825Z,20.88
2018-08-12T02:09:03.881Z,20.89
2018-08-12T02:09:35.984Z,20.93
2018-08-12T02:10:08.104Z,20.93
2018-08-12T02:10:40.175Z,20.89
2018-08-12T02:11:12.275Z,20.82
2018-08-12T02:11:44.601Z,20.78
2018-08-12T02:12:16.670Z,20.74
2018-08-12T02:12:48.733Z,20.73
2018-08-12T02:13:20.886Z,20.74
2018-08-12T02:13:52.931Z,20.77
2018-08-12T02:14:25.008Z,20.79
2018-08-12T02:14:57.063Z,20.79
2018-08-12T02:15:29.204Z,20.77
2018-08-12T02:16:01.329Z,20.71
2018-08-12T02:16:33.408Z,20.70
2018-08-12T02:17:05.467Z,20.69
2018-08-12T02:17:37.549Z,20.72
2018-08-12T02:18:09.614Z,20.78
2018-08-12T02:18:41.789Z,20.84
2018-08-12T02:19:13.856Z,20.84
2018-08-12T02:19:45.925Z,20.85
2018-08-12T02:20:17.987Z,20.84
2018-08-12T02:20:50.080Z,20.85
2018-08-12T02:21:22.145Z,20.87
2018-08-12T02:21:54.201Z,20.84
2018-08-12T02:22:26.273Z,20.82
2018-08-12T02:22:58.345Z,20.80
2018-08-12T02:23:30.421Z,20.80
2018-08-12T02:24:02.481Z,20.81
2018-08-12T02:24:34.565Z,20.80
2018-08-12T02:25:06.645Z,20.83
2018-08-12T02:25:38.726Z,20.81
2018-08-12T02:26:10.788Z,20.75
2018-08-12T02:26:42.862Z,20.73
2018-08-12T02:27:14.933Z,20.71
2018-08-12T02:27:47.004Z,20.75
2018-08-12T02:28:19.087Z,20.75
2018-08-12T02:28:51.166Z,20.77
2018-08-12T02:29:23.229Z,20.74
2018-08-12T02:29:55.309Z,20.71
2018-08-12T02:30:27.350Z,20.69
2018-08-12T02:30:59.490Z,20.73
2018-08-12T02:31:31.567Z,20.74
2018-08-12T02:32:03.633Z,20.70
2018-08-12T02:32:35.713Z,20.66
2018-08-12T02:33:07.822Z,20.61
2018-08-12T02:33:39.872Z,20.60
2018-08-12T02:34:11.942Z,20.59
2018-08-12T02:34:43.992Z,20.55
2018-08-12T02:35:16.058Z,20.55
2018-08-12T02:35:48.142Z,20.52
2018-08-12T02:36:20.193Z,20.50
2018-08-12T02:36:52.270Z,20.51
2018-08-12T02:37:24.357Z,20.50
2018-08-12T02:37:56.426Z,20.52
2018-08-12T02:38:28.506Z,20.54
2018-08-12T02:39:00.573Z,20.55
2018-08-12T02:39:32.637Z,20.56
2018-08-12T02:40:04.709Z,20.55
2018-08-12T02:40:36.770Z,20.57
2018-08-12T02:41:08.840Z,20.58
2018-08-12T02:41:40.923Z,20.63
2018-08-12T02:42:12.976Z,20.65
2018-08-12T02:42:45.067Z,20.66
2018-08-12T02:43:17.129Z,20.67
2018-08-12T02:43:49.184Z,20.64
2018-08-12T02:44:21.244Z,20.64
2018-08-12T02:44:53.297Z,20.64
2018-08-12T02:45:25.363Z,20.61
2018-08-12T02:45:57.425Z,20.57
2018-08-12T02:46:29.489Z,20.56
2018-08-12T02:47:01.557Z,20.56
2018-08-12T02:47:33.617Z,20.56
2018-08-12T02:48:05.678Z,20.50
2018-08-12T02:48:37.741Z,20.46
2018-08-12T02:49:09.794Z,20.48
2018-08-12T02:49:41.857Z,20.49
2018-08-12T02:50:13.932Z,20.49
2018-08-12T02:50:45.997Z,20.46
2018-08-12T02:51:18.061Z,20.42
2018-08-12T02:51:50.114Z,20.38
2018-08-12T02:52:22.201Z,20.31
2018-08-12T02:52:54.275Z,20.28
2018-08-12T02:53:26.328Z,20.24
2018-08-12T02:53:58.404Z,20.27
2018-08-12T02:54:30.460Z,20.32
2018-08-12T02:55:02.524Z,20.35
2018-08-12T02:55:34.591Z,20.37
2018-08-12T02:56:06.721Z,20.38
2018-08-12T02:56:38.811Z,20.40
2018-08-12T02:57:10.876Z,20.41
2018-08-12T02:57:42.935Z,20.44
2018-08-12T02:58:14.998Z,20.43
2018-08-12T02:58:47.052Z,20.49
2018-08-12T02:59:19.114Z,20.48
2018-08-12T02:59:51.166Z,20.47
2018-08-12T03:00:23.235Z,20.48
2018-08-12T03:00:55.311Z,20.47
2018-08-12T03:01:27.376Z,20.45
2018-08-12T03:01:59.455Z,20.41
2018-08-12T03:02:31.527Z,20.39
2018-08-12T03:03:03.617Z,20.41
2018-08-12T03:03:35.681Z,20.38
2018-08-12T03:04:07.746Z,20.36
2018-08-12T03:04:39.825Z,20.36
2018-08-12T03:05:11.895Z,20.36
2018-08-12T03:05:43.957Z,20.37
2018-08-12T03:06:16.008Z,20.35
2018-08-12T03:06:48.063Z,20.33
2018-08-12T03:07:20.115Z,20.31
2018-08-12T03:07:52.193Z,20.34
2018-08-12T03:08:24.253Z,20.36
2018-08-12T03:08:56.310Z,20.34
2018-08-12T03:09:28.409Z,20.35
2018-08-12T03:10:00.469Z,20.36
2018-08-12T03:10:32.538Z,20.36
2018-08-12T03:11:04.593Z,20.38
2018-08-12T03:11:36.661Z,20.42
2018-08-12T03:12:08.717Z,20.44
2018-08-12T03:12:40.814Z,20.49
2018-08-12T03:13:12.886Z,20.51
2018-08-12T03:13:44.932Z,20.55
2018-08-12T03:14:17.005Z,20.57
2018-08-12T03:14:49.130Z,20.59
2018-08-12T03:15:21.197Z,20.62
2018-08-12T03:15:53.264Z,20.68
2018-08-12T03:16:25.338Z,20.72
2018-08-12T03:16:57.409Z,20.73
2018-08-12T03:17:29.483Z,20.72
2018-08-12T03:18:01.533Z,20.78
2018-08-12T03:18:33.591Z,20.78
2018-08-12T03:19:05.665Z,20.75
2018-08-12T03:19:37.765Z,20.72
2018-08-12T03:20:09.812Z,20.80
2018-08-12T03:20:41.896Z,20.87
2018-08-12T03:21:13.976Z,20.86
2018-08-12T03:21:46.054Z,20.86
2018-08-12T03:22:18.185Z,20.81
2018-08-12T03:22:50.184Z,20.76
2018-08-12T03:23:22.258Z,20.72
2018-08-12T03:23:54.327Z,20.75
2018-08-12T03:24:26.407Z,20.73
2018-08-12T03:24:58.465Z,20.71
2018-08-12T03:25:30.556Z,20.64
2018-08-12T03:26:02.598Z,20.64
2018-08-12T03:26:34.670Z,20.63
2018-08-12T03:27:06.745Z,20.64
2018-08-12T03:27:38.813Z,20.66
2018-08-12T03:28:10.890Z,20.66
2018-08-12T03:28:42.959Z,20.66
2018-08-12T03:29:15.024Z,20.65
2018-08-12T03:29:47.100Z,20.66
2018-08-12T03:30:19.284Z,20.65
2018-08-12T03:30:51.283Z,20.66
2018-08-12T03:31:23.327Z,20.63
2018-08-12T03:31:55.390Z,20.58
2018-08-12T03:32:27.444Z,20.58
2018-08-12T03:32:59.517Z,20.56
2018-08-12T03:33:31.585Z,20.56
2018-08-12T03:34:03.653Z,20.55
2018-08-12T03:34:35.720Z,20.57
2018-08-12T03:35:07.770Z,20.57
2018-08-12T03:35:39.834Z,20.55
2018-08-12T03:36:11.900Z,20.52
2018-08-12T03:36:43.965Z,20.43
2018-08-12T03:37:16.038Z,20.38
2018-08-12T03:37:48.130Z,20.38
2018-08-12T03:38:20.177Z,20.37
2018-08-12T03:38:52.234Z,20.38
2018-08-12T03:39:24.297Z,20.38
2018-08-12T03:39:56.377Z,20.38
2018-08-12T03:40:28.441Z,20.36
2018-08-12T03:41:00.508Z,20.36
2018-08-12T03:41:32.556Z,20.37
2018-08-12T03:42:04.625Z,20.41
2018-08-12T03:42:36.686Z,20.43
2018-08-12T03:43:08.761Z,20.47
2018-08-12T03:43:40.831Z,20.48
2018-08-12T03:44:12.886Z,20.48
2018-08-12T03:44:44.977Z,20.46
2018-08-12T03:45:17.042Z,20.39
2018-08-12T03:45:49.099Z,20.34
2018-08-12T03:46:21.169Z,20.32
2018-08-12T03:46:53.238Z,20.28
2018-08-12T03:47:25.309Z,20.31
2018-08-12T03:47:57.374Z,20.32
2018-08-12T03:48:29.448Z,20.33
2018-08-12T03:49:01.510Z,20.35
2018-08-12T03:49:33.576Z,20.36
2018-08-12T03:50:05.697Z,20.38
2018-08-12T03:50:37.807Z,20.39
2018-08-12T03:51:09.860Z,20.37
2018-08-12T03:51:41.917Z,20.34
2018-08-12T03:52:14.004Z,20.30
2018-08-12T03:52:46.066Z,20.26
2018-08-12T03:53:18.122Z,20.22
2018-08-12T03:53:50.189Z,20.18
2018-08-12T03:54:22.261Z,20.15
2018-08-12T03:54:54.324Z,20.15
2018-08-12T03:55:26.385Z,20.15
2018-08-12T03:55:58.454Z,20.18
2018-08-12T03:56:30.526Z,20.18
2018-08-12T03:57:02.575Z,20.19
2018-08-12T03:57:34.648Z,20.21
2018-08-12T03:58:06.749Z,20.24
2018-08-12T03:58:38.786Z,20.23
2018-08-12T03:59:10.842Z,20.23
2018-08-12T03:59:42.902Z,20.22
2018-08-12T04:00:14.988Z,20.21
2018-08-12T04:00:47.093Z,20.20
2018-08-12T04:01:19.159Z,20.21
2018-08-12T04:01:51.421Z,20.19
2018-08-12T04:02:23.477Z,20.20
2018-08-12T04:02:55.522Z,20.21
2018-08-12T04:03:27.592Z,20.20
2018-08-12T04:03:59.674Z,20.18
2018-08-12T04:04:31.747Z,20.18
2018-08-12T04:05:03.800Z,20.16
2018-08-12T04:05:35.844Z,20.11
2018-08-12T04:06:07.921Z,20.06
2018-08-12T04:06:39.977Z,20.05
2018-08-12T04:07:12.059Z,20.02
2018-08-12T04:07:44.113Z,20.01
2018-08-12T04:08:16.194Z,20.07
2018-08-12T04:08:48.268Z,20.11
2018-08-12T04:09:20.324Z,20.12
2018-08-12T04:09:52.381Z,20.10
2018-08-12T04:10:24.437Z,20.09
2018-08-12T04:10:56.511Z,20.07
2018-08-12T04:11:28.565Z,20.08
2018-08-12T04:12:00.628Z,20.12
2018-08-12T04:12:32.697Z,20.14
2018-08-12T04:13:04.763Z,20.16
2018-08-12T04:13:36.840Z,20.12
2018-08-12T04:14:08.923Z,20.08
2018-08-12T04:14:41.000Z,20.04
2018-08-12T04:15:13.067Z,20.02
2018-08-12T04:15:45.130Z,20.03
2018-08-12T04:16:17.202Z,20.02
2018-08-12T04:16:49.255Z,20.06
2018-08-12T04:17:21.312Z,20.06
2018-08-12T04:17:53.383Z,20.01
2018-08-12T04:18:25.437Z,20.06
2018-08-12T04:18:57.507Z,20.05
2018-08-12T04:19:29.563Z,20.04
2018-08-12T04:20:01.664Z,20.04
2018-08-12T04:20:33.765Z,20.05
2018-08-12T04:21:05.811Z,20.05
2018-08-12T04:21:37.862Z,20.05
2018-08-12T04:22:09.945Z,20.04
2018-08-12T04:22:42.058Z,20.01
2018-08-12T04:23:14.136Z,20.01
2018-08-12T04:23:46.201Z,20.00
2018-08-12T04:24:18.256Z,20.02
2018-08-12T04:24:50.394Z,19.99
2018-08-12T04:25:22.537Z,20.01
2018-08-12T04:25:54.548Z,20.02
2018-08-12T04:26:26.613Z,20.04
2018-08-12T04:26:58.703Z,20.06
2018-08-12T04:27:30.760Z,20.08
2018-08-12T04:28:02.813Z,20.08
2018-08-12T04:28:34.886Z,20.10
2018-08-12T04:29:06.954Z,20.12
2018-08-12T04:29:39.010Z,20.12
2018-08-12T04:30:11.093Z,20.11
2018-08-12T04:30:43.135Z,20.10
2018-08-12T04:31:15.192Z,20.08
2018-08-12T04:31:47.267Z,20.08
2018-08-12T04:32:19.350Z,20.07
2018-08-12T04:32:51.421Z,20.06
2018-08-12T04:33:23.499Z,20.07
2018-08-12T04:33:55.562Z,20.06
2018-08-12T04:34:27.733Z,20.06
2018-08-12T04:34:59.755Z,20.09
2018-08-12T04:35:31.817Z,20.10
2018-08-12T04:36:03.882Z,20.10
2018-08-12T04:36:36.000Z,20.08
2018-08-12T04:37:08.057Z,20.05
2018-08-12T04:37:40.172Z,20.06
2018-08-12T04:38:12.230Z,20.07
2018-08-12T04:38:44.295Z,20.09
2018-08-12T04:39:16.356Z,20.11
2018-08-12T04:39:48.424Z,20.09
2018-08-12T04:40:20.489Z,20.08
2018-08-12T04:40:52.541Z,20.11
2018-08-12T04:41:24.627Z,20.13
2018-08-12T04:41:56.709Z,20.15
2018-08-12T04:42:28.753Z,20.14
2018-08-12T04:43:00.818Z,20.17
2018-08-12T04:43:32.881Z,20.17
2018-08-12T04:44:05.040Z,20.20
2018-08-12T04:44:37.102Z,20.23
2018-08-12T04:45:09.179Z,20.25
2018-08-12T04:45:41.228Z,20.26
2018-08-12T04:46:13.301Z,20.31
2018-08-12T04:46:45.363Z,20.35
2018-08-12T04:47:17.454Z,20.35
2018-08-12T04:47:49.517Z,20.33
2018-08-12T04:48:21.586Z,20.27
2018-08-12T04:48:53.666Z,20.22
2018-08-12T04:49:25.738Z,20.21
2018-08-12T04:49:57.812Z,20.20
2018-08-12T04:50:29.891Z,20.15
2018-08-12T04:51:01.943Z,20.12
2018-08-12T04:51:34.011Z,20.05
2018-08-12T04:52:06.093Z,20.05
2018-08-12T04:52:38.146Z,20.03
2018-08-12T04:53:10.225Z,20.00
2018-08-12T04:53:42.305Z,20.00
2018-08-12T04:54:14.381Z,19.93
2018-08-12T04:54:46.429Z,19.94
2018-08-12T04:55:18.502Z,19.95
2018-08-12T04:55:50.559Z,19.96
2018-08-12T04:56:22.635Z,20.00
2018-08-12T04:56:54.680Z,19.97
2018-08-12T04:57:26.774Z,19.92
2018-08-12T04:57:58.842Z,19.92
2018-08-12T04:58:30.917Z,19.92
2018-08-12T04:59:02.991Z,19.94
2018-08-12T04:59:35.057Z,19.94
2018-08-12T05:00:07.129Z,19.93
2018-08-12T05:00:39.202Z,19.91
2018-08-12T05:01:11.319Z,19.90
2018-08-12T05:01:43.564Z,19.89
2018-08-12T05:02:15.726Z,19.90
2018-08-12T05:02:47.792Z,19.92
2018-08-12T05:03:20.009Z,19.92
2018-08-12T05:03:52.073Z,19.96
2018-08-12T05:04:24.137Z,19.97
2018-08-12T05:04:56.375Z,20.02
2018-08-12T05:05:28.450Z,20.00
2018-08-12T05:06:00.508Z,20.03
2018-08-12T05:06:32.647Z,20.04
2018-08-12T05:07:04.716Z,20.01
2018-08-12T05:07:36.802Z,19.99
2018-08-12T05:08:08.865Z,19.97
2018-08-12T05:08:40.930Z,19.94
2018-08-12T05:09:12.981Z,19.89
2018-08-12T05:09:45.057Z,19.91
2018-08-12T05:10:17.124Z,19.91
2018-08-12T05:10:49.208Z,19.91
2018-08-12T05:11:21.265Z,19.93
2018-08-12T05:11:53.329Z,19.94
2018-08-12T05:12:25.402Z,19.94
2018-08-12T05:12:57.486Z,19.94
2018-08-12T05:13:29.554Z,19.94
2018-08-12T05:14:01.606Z,19.97
2018-08-12T05:14:33.672Z,19.97
2018-08-12T05:15:05.756Z,20.01
2018-08-12T05:15:37.849Z,20.02
2018-08-12T05:16:09.913Z,20.00
2018-08-12T05:16:42.028Z,19.97
2018-08-12T05:17:14.106Z,20.00
2018-08-12T05:17:46.187Z,19.98
2018-08-12T05:18:18.256Z,20.03
2018-08-12T05:18:50.459Z,20.07
2018-08-12T05:19:22.544Z,20.11
2018-08-12T05:19:54.610Z,20.07
2018-08-12T05:20:26.672Z,20.07
2018-08-12T05:20:58.749Z,20.04
2018-08-12T05:21:30.833Z,20.08
2018-08-12T05:22:02.910Z,20.08
2018-08-12T05:22:35.011Z,20.10
2018-08-12T05:23:07.078Z,20.09
2018-08-12T05:23:39.142Z,20.09
2018-08-12T05:24:11.221Z,20.09
2018-08-12T05:24:43.287Z,20.11
2018-08-12T05:25:15.484Z,20.13
2018-08-12T05:25:47.547Z,20.15
2018-08-12T05:26:19.604Z,20.17
2018-08-12T05:26:51.661Z,20.16
2018-08-12T05:27:23.730Z,20.15
2018-08-12T05:27:55.798Z,20.18
2018-08-12T05:28:27.891Z,20.18
2018-08-12T05:28:59.956Z,20.20
2018-08-12T05:29:32.018Z,20.20
2018-08-12T05:30:04.102Z,20.23
2018-08-12T05:30:36.181Z,20.23
2018-08-12T05:31:08.235Z,20.26
2018-08-12T05:31:40.322Z,20.27
2018-08-12T05:32:12.378Z,20.30
2018-08-12T05:32:44.446Z,20.33
2018-08-12T05:33:16.553Z,20.33
2018-08-12T05:33:48.609Z,20.36
2018-08-12T05:34:20.664Z,20.37
2018-08-12T05:34:52.737Z,20.40
2018-08-12T05:35:24.806Z,20.43
2018-08-12T05:35:56.905Z,20.45
2018-08-12T05:36:28.986Z,20.44
2018-08-12T05:37:01.036Z,20.43
2018-08-12T05:37:33.103Z,20.44
2018-08-12T05:38:05.168Z,20.48
2018-08-12T05:38:37.257Z,20.48
2018-08-12T05:39:09.327Z,20.47
2018-08-12T05:39:41.510Z,20.45
2018-08-12T05:40:13.577Z,20.42
2018-08-12T05:40:45.670Z,20.38
2018-08-12T05:41:17.733Z,20.33
2018-08-12T05:41:49.785Z,20.32
2018-08-12T05:42:21.872Z,20.26
2018-08-12T05:42:53.956Z,20.24
2018-08-12T05:43:26.010Z,20.23
2018-08-12T05:43:58.092Z,20.25
2018-08-12T05:44:30.154Z,20.25
2018-08-12T05:45:02.235Z,20.27
2018-08-12T05:45:34.285Z,20.25
2018-08-12T05:46:06.356Z,20.25
2018-08-12T05:46:38.454Z,20.28
2018-08-12T05:47:10.515Z,20.33
2018-08-12T05:47:42.564Z,20.36
2018-08-12T05:48:14.645Z,20.35
2018-08-12T05:48:46.711Z,20.33
2018-08-12T05:49:18.769Z,20.32
2018-08-12T05:49:50.849Z,20.33
2018-08-12T05:50:22.900Z,20.36
2018-08-12T05:50:54.968Z,20.38
2018-08-12T05:51:27.131Z,20.38
2018-08-12T05:51:59.092Z,20.40
2018-08-12T05:52:31.165Z,20.42
2018-08-12T05:53:03.246Z,20.43
2018-08-12T05:53:35.311Z,20.45
2018-08-12T05:54:07.400Z,20.48
2018-08-12T05:54:39.461Z,20.47
2018-08-12T05:55:11.539Z,20.45
2018-08-12T05:55:43.595Z,20.40
2018-08-12T05:56:15.653Z,20.42
2018-08-12T05:56:47.782Z,20.41
2018-08-12T05:57:19.894Z,20.44
2018-08-12T05:57:51.909Z,20.49
2018-08-12T05:58:23.976Z,20.53
2018-08-12T05:58:56.037Z,20.59
2018-08-12T05:59:28.103Z,20.60
2018-08-12T06:00:00.167Z,20.63
2018-08-12T06:00:32.228Z,20.65
2018-08-12T06:01:04.324Z,20.69
2018-08-12T06:01:36.406Z,20.76
2018-08-12T06:02:08.476Z,20.78
2018-08-12T06:02:40.550Z,20.78
2018-08-12T06:03:12.605Z,20.74
2018-08-12T06:03:44.668Z,20.77
2018-08-12T06:04:16.756Z,20.82
2018-08-12T06:04:48.818Z,20.88
2018-08-12T06:05:20.896Z,20.94
2018-08-12T06:05:52.961Z,20.93
2018-08-12T06:06:25.029Z,20.94
2018-08-12T06:06:57.101Z,20.94
2018-08-12T06:07:29.170Z,20.94
2018-08-12T06:08:01.231Z,20.94
2018-08-12T06:08:33.309Z,20.95
2018-08-12T06:09:05.365Z,20.90
2018-08-12T06:09:37.445Z,20.91
2018-08-12T06:10:09.530Z,20.94
2018-08-12T06:10:41.600Z,20.91
2018-08-12T06:11:13.668Z,20.96
2018-08-12T06:11:45.712Z,20.99
2018-08-12T06:12:17.793Z,21.01
2018-08-12T06:12:49.874Z,21.04
2018-08-12T06:13:21.953Z,21.05
2018-08-12T06:13:54.013Z,21.04
2018-08-12T06:14:26.071Z,21.03
2018-08-12T06:14:58.139Z,21.00
2018-08-12T06:15:30.214Z,20.95
2018-08-12T06:16:02.399Z,20.96
2018-08-12T06:16:34.923Z,20.95
2018-08-12T06:17:06.986Z,20.93
2018-08-12T06:17:39.061Z,20.93
2018-08-12T06:18:11.137Z,20.91
2018-08-12T06:18:43.204Z,20.90
2018-08-12T06:19:15.259Z,20.95
2018-08-12T06:19:47.334Z,21.03
2018-08-12T06:20:19.424Z,21.08
2018-08-12T06:20:51.478Z,21.13
2018-08-12T06:21:23.598Z,21.12
2018-08-12T06:21:55.653Z,21.13
2018-08-12T06:22:27.724Z,21.12
2018-08-12T06:23:00.256Z,21.14
2018-08-12T06:23:32.338Z,21.17
2018-08-12T06:24:04.388Z,21.19
2018-08-12T06:24:36.450Z,21.20
2018-08-12T06:25:08.517Z,21.22
2018-08-12T06:25:40.602Z,21.27
2018-08-12T06:26:12.683Z,21.30
2018-08-12T06:26:44.745Z,21.28
2018-08-12T06:27:16.806Z,21.25
2018-08-12T06:27:48.904Z,21.28
2018-08-12T06:28:20.965Z,21.28
2018-08-12T06:28:53.022Z,21.23
2018-08-12T06:29:25.089Z,21.17
2018-08-12T06:29:57.148Z,21.18
2018-08-12T06:30:29.211Z,21.18
2018-08-12T06:31:01.289Z,21.18
2018-08-12T06:31:33.419Z,21.26
2018-08-12T06:32:05.417Z,21.29
2018-08-12T06:32:37.490Z,21.31
2018-08-12T06:33:09.552Z,21.32
2018-08-12T06:33:41.630Z,21.29
2018-08-12T06:34:13.843Z,21.32
2018-08-12T06:34:45.859Z,21.35
2018-08-12T06:35:17.928Z,21.32
2018-08-12T06:35:50.023Z,21.32
2018-08-12T06:36:22.085Z,21.33
2018-08-12T06:36:54.175Z,21.37
2018-08-12T06:37:26.243Z,21.41
2018-08-12T06:37:58.289Z,21.37
2018-08-12T06:38:30.501Z,21.39
2018-08-12T06:39:02.589Z,21.36
2018-08-12T06:39:34.648Z,21.31
2018-08-12T06:40:06.713Z,21.28
2018-08-12T06:40:38.786Z,21.24
2018-08-12T06:41:10.847Z,21.22
2018-08-12T06:41:42.917Z,21.23
2018-08-12T06:42:14.992Z,21.26
2018-08-12T06:42:47.045Z,21.27
2018-08-12T06:43:19.137Z,21.28
2018-08-12T06:43:51.184Z,21.28
2018-08-12T06:44:23.260Z,21.29
2018-08-12T06:44:55.314Z,21.32
2018-08-12T06:45:27.373Z,21.35
2018-08-12T06:45:59.455Z,21.37
2018-08-12T06:46:31.528Z,21.39
2018-08-12T06:47:03.583Z,21.38
2018-08-12T06:47:35.670Z,21.39
2018-08-12T06:48:07.725Z,21.38
2018-08-12T06:48:39.791Z,21.44
2018-08-12T06:49:12.093Z,21.46
2018-08-12T06:49:44.262Z,21.47
2018-08-12T06:50:16.382Z,21.47
2018-08-12T06:50:48.471Z,21.48
2018-08-12T06:51:20.534Z,21.48
2018-08-12T06:51:52.635Z,21.51
2018-08-12T06:52:24.677Z,21.54
2018-08-12T06:52:56.790Z,21.58